Terminal Aerodrome Forecast
Issued by NWS

Home | Current Version | Previous Version | Text Only | Print | Product List | Glossary On
Versions: 1 2 3 4 5 6 7 8 9 10 11 12 13 14 15 16
000
FTUS42 KGSP 290520
TAFGMU
TAF
KGMU 290520Z 2906/3006 13003KT P6SM FEW230
     FM291400 21006G14KT P6SM SCT220
     FM291800 21010G17KT P6SM BKN220
     FM300200 23007G15KT P6SM BKN050=

USA.gov is the U.S. government's official web portal to all federal, state and local government web resources and services.